createdAt,value
2023-01-08T00:02:06.592Z,12.00
2023-01-08T00:04:33.237Z,12.10
2023-01-08T00:06:59.865Z,9.70
2023-01-08T00:09:26.653Z,10.90
2023-01-08T00:11:53.312Z,10.00
2023-01-08T00:14:20.127Z,10.30
2023-01-08T00:16:46.863Z,9.20
2023-01-08T00:19:13.742Z,9.40
2023-01-08T00:21:40.537Z,8.00
2023-01-08T00:24:07.275Z,7.30
2023-01-08T00:26:34.021Z,5.90
2023-01-08T00:29:00.772Z,5.90
2023-01-08T00:31:27.440Z,5.80
2023-01-08T00:33:54.174Z,5.60
2023-01-08T00:36:20.978Z,5.40
2023-01-08T00:38:47.708Z,5.90
2023-01-08T00:41:14.829Z,5.80
2023-01-08T00:43:41.562Z,5.40
2023-01-08T00:46:08.493Z,6.20
2023-01-08T00:48:39.014Z,5.90
2023-01-08T00:51:07.089Z,6.80
2023-01-08T00:53:33.859Z,5.90
2023-01-08T00:56:09.129Z,5.40
2023-01-08T00:58:35.945Z,7.20
2023-01-08T01:01:02.740Z,6.40
2023-01-08T01:03:29.396Z,6.80
2023-01-08T01:06:05.699Z,6.30
2023-01-08T01:08:33.151Z,6.80
2023-01-08T01:10:59.838Z,6.90
2023-01-08T01:13:26.735Z,7.10
2023-01-08T01:16:00.125Z,6.80
2023-01-08T01:18:27.038Z,6.40
2023-01-08T01:20:53.830Z,6.40
2023-01-08T01:23:20.537Z,6.60
2023-01-08T01:25:47.171Z,6.70
2023-01-08T01:28:13.899Z,7.30
2023-01-08T01:30:40.608Z,7.50
2023-01-08T01:33:07.386Z,7.50
2023-01-08T01:35:34.063Z,7.70
2023-01-08T01:38:00.658Z,7.30
2023-01-08T01:40:27.543Z,7.50
2023-01-08T01:42:54.171Z,7.50
2023-01-08T01:45:27.682Z,7.30
2023-01-08T01:47:56.198Z,7.60
2023-01-08T01:50:35.802Z,7.20
2023-01-08T01:53:08.650Z,8.20
2023-01-08T01:55:35.684Z,7.30
2023-01-08T01:58:10.459Z,7.40
2023-01-08T02:00:37.119Z,7.40
2023-01-08T02:03:03.896Z,7.00
2023-01-08T02:05:38.646Z,7.30
2023-01-08T02:08:08.570Z,7.90
2023-01-08T02:10:53.608Z,7.80
2023-01-08T02:13:29.899Z,7.20
2023-01-08T02:15:58.511Z,6.80
2023-01-08T02:18:34.710Z,7.70
2023-01-08T02:21:03.906Z,7.40
2023-01-08T02:23:38.278Z,7.20
2023-01-08T02:26:17.400Z,7.20
2023-01-08T02:28:59.893Z,7.20
2023-01-08T02:31:27.639Z,7.50
2023-01-08T02:33:54.416Z,7.20
2023-01-08T02:36:42.023Z,7.20
2023-01-08T02:39:16.505Z,7.50
2023-01-08T02:42:07.495Z,7.60
2023-01-08T02:45:04.344Z,7.60
2023-01-08T02:47:34.448Z,8.30
2023-01-08T02:50:24.395Z,8.40
2023-01-08T02:53:23.488Z,7.70
2023-01-08T02:55:53.234Z,9.00
2023-01-08T02:58:19.861Z,8.50
2023-01-08T03:00:47.065Z,8.90
2023-01-08T03:03:25.017Z,9.10
2023-01-08T03:05:53.903Z,8.80
2023-01-08T03:08:20.669Z,9.60
2023-01-08T03:10:50.607Z,8.90
2023-01-08T03:13:21.944Z,8.50
2023-01-08T03:15:53.899Z,8.20
2023-01-08T03:18:22.360Z,9.00
2023-01-08T03:20:49.035Z,8.90
2023-01-08T03:23:15.723Z,9.50
2023-01-08T03:25:43.677Z,9.60
2023-01-08T03:28:13.927Z,9.50
2023-01-08T03:30:41.016Z,8.80
2023-01-08T03:33:07.777Z,9.20
2023-01-08T03:35:34.460Z,7.40
2023-01-08T03:38:05.102Z,7.60
2023-01-08T03:40:35.669Z,7.80
2023-01-08T03:43:02.462Z,7.70
2023-01-08T03:45:29.650Z,8.10
2023-01-08T03:47:56.322Z,9.10
2023-01-08T03:50:23.970Z,8.60
2023-01-08T03:52:50.627Z,8.30
2023-01-08T03:55:17.270Z,7.70
2023-01-08T03:57:43.953Z,7.70
2023-01-08T04:00:11.333Z,7.50
2023-01-08T04:02:38.078Z,7.80
2023-01-08T04:05:05.160Z,8.00
2023-01-08T04:07:31.904Z,8.40
2023-01-08T04:09:58.544Z,8.00
2023-01-08T04:12:25.282Z,7.40
2023-01-08T04:14:51.953Z,8.00
2023-01-08T04:17:18.641Z,7.60
2023-01-08T04:19:45.372Z,8.30
2023-01-08T04:22:12.147Z,8.50
2023-01-08T04:24:38.879Z,9.30
2023-01-08T04:27:05.631Z,8.40
2023-01-08T04:29:32.236Z,7.60
2023-01-08T04:31:59.214Z,8.00
2023-01-08T04:34:25.938Z,8.30
2023-01-08T04:36:52.621Z,8.60
2023-01-08T04:39:19.265Z,8.40
2023-01-08T04:41:45.926Z,8.50
2023-01-08T04:44:12.626Z,8.50
2023-01-08T04:46:39.534Z,9.10
2023-01-08T04:49:06.358Z,8.90
2023-01-08T04:51:32.990Z,8.30
2023-01-08T04:53:59.653Z,9.10
2023-01-08T04:56:26.417Z,9.00
2023-01-08T04:58:53.160Z,8.50
2023-01-08T05:01:24.895Z,9.10
2023-01-08T05:03:55.653Z,8.50
2023-01-08T05:06:22.290Z,9.20
2023-01-08T05:08:48.961Z,8.70
2023-01-08T05:11:15.845Z,8.90
2023-01-08T05:13:42.479Z,9.00
2023-01-08T05:16:09.293Z,8.40
2023-01-08T05:18:36.271Z,9.30
2023-01-08T05:21:03.229Z,9.00
2023-01-08T05:23:30.748Z,9.60
2023-01-08T05:25:58.832Z,9.40
2023-01-08T05:28:25.999Z,8.40
2023-01-08T05:30:52.771Z,9.40
2023-01-08T05:33:19.668Z,9.80
2023-01-08T05:35:46.389Z,9.50
2023-01-08T05:38:13.072Z,9.20
2023-01-08T05:40:39.897Z,10.00
2023-01-08T05:43:06.735Z,10.20
2023-01-08T05:45:33.441Z,10.70
2023-01-08T05:48:00.219Z,9.60
2023-01-08T05:50:26.915Z,9.70
2023-01-08T05:52:53.592Z,10.00
2023-01-08T05:55:20.304Z,10.50
2023-01-08T05:57:47.011Z,11.10
2023-01-08T06:00:14.860Z,10.50
2023-01-08T06:02:46.121Z,11.20
2023-01-08T06:05:13.320Z,10.90
2023-01-08T06:07:39.966Z,10.60
2023-01-08T06:10:07.086Z,10.70
2023-01-08T06:12:33.713Z,11.60
2023-01-08T06:15:00.471Z,10.70
2023-01-08T06:17:27.120Z,11.80
2023-01-08T06:19:53.775Z,11.30
2023-01-08T06:22:20.524Z,11.50
2023-01-08T06:24:47.281Z,11.20
2023-01-08T06:27:14.609Z,11.70
2023-01-08T06:29:41.286Z,10.10
2023-01-08T06:32:08.135Z,11.00
2023-01-08T06:34:34.786Z,11.10
2023-01-08T06:37:01.467Z,10.70
2023-01-08T06:39:28.218Z,10.90
2023-01-08T06:44:04.039Z,11.60
2023-01-08T06:46:30.800Z,10.40
2023-01-08T06:48:57.691Z,10.90
2023-01-08T06:51:24.400Z,10.90
2023-01-08T06:53:51.077Z,10.80
2023-01-08T06:56:17.884Z,12.10
2023-01-08T08:04:40.763Z,9.10
2023-01-08T08:07:07.472Z,8.50
2023-01-08T08:09:34.122Z,8.00
2023-01-08T08:12:00.756Z,7.30
2023-01-08T08:14:27.511Z,7.20
2023-01-08T08:16:54.152Z,7.60
2023-01-08T08:19:20.940Z,7.90
2023-01-08T08:21:48.416Z,7.50
2023-01-08T08:24:16.209Z,6.80
2023-01-08T08:26:42.851Z,7.60
2023-01-08T08:29:09.591Z,7.80
2023-01-08T08:31:36.321Z,7.50
2023-01-08T08:34:03.236Z,7.00
2023-01-08T08:36:30.326Z,7.50
2023-01-08T08:38:56.991Z,7.20
2023-01-08T08:41:23.802Z,7.10
2023-01-08T08:43:51.485Z,7.10
2023-01-08T08:46:18.371Z,7.60
2023-01-08T08:48:46.529Z,7.80
2023-01-08T08:51:14.252Z,7.30
2023-01-08T08:53:40.997Z,7.50
2023-01-08T08:56:07.844Z,7.00
2023-01-08T08:58:34.667Z,7.20
2023-01-08T09:01:02.658Z,7.80
2023-01-08T09:03:29.879Z,7.60
2023-01-08T09:05:58.945Z,7.20
2023-01-08T09:08:26.457Z,7.30
2023-01-08T09:10:53.119Z,7.60
2023-01-08T09:13:19.921Z,7.80
2023-01-08T09:15:46.558Z,7.50
2023-01-08T09:18:15.841Z,7.40
2023-01-08T09:20:42.804Z,8.00
2023-01-08T09:23:09.549Z,7.40
2023-01-08T09:25:36.242Z,8.10
2023-01-08T09:28:07.007Z,7.70
2023-01-08T09:30:34.267Z,7.60
2023-01-08T09:33:02.891Z,8.50
2023-01-08T09:35:30.746Z,7.60
2023-01-08T09:37:57.427Z,7.90
2023-01-08T09:40:26.874Z,8.90
2023-01-08T09:42:59.015Z,7.70
2023-01-08T09:45:29.015Z,8.60
2023-01-08T09:48:00.460Z,8.40
2023-01-08T09:50:27.899Z,8.10
2023-01-08T09:52:54.933Z,7.90
2023-01-08T09:55:21.637Z,8.00
2023-01-08T09:57:48.604Z,8.40
2023-01-08T10:00:25.888Z,8.10
2023-01-08T10:02:54.142Z,8.40
2023-01-08T10:05:20.984Z,7.90
2023-01-08T10:07:47.696Z,8.30
2023-01-08T10:10:20.024Z,8.00
2023-01-08T10:12:46.957Z,7.90
2023-01-08T10:15:15.462Z,8.10
2023-01-08T10:17:48.910Z,8.00
2023-01-08T10:20:17.455Z,7.90
2023-01-08T10:22:44.857Z,8.10
2023-01-08T10:25:22.587Z,8.10
2023-01-08T10:27:51.392Z,7.90
2023-01-08T10:30:22.446Z,8.00
2023-01-08T10:32:54.514Z,8.10
2023-01-08T10:35:24.666Z,7.70
2023-01-08T10:37:51.722Z,7.60
2023-01-08T10:40:30.833Z,7.80
2023-01-08T10:43:05.309Z,7.60
2023-01-08T10:45:31.998Z,7.50
2023-01-08T10:47:59.871Z,7.50
2023-01-08T10:50:30.813Z,7.80
2023-01-08T10:52:59.902Z,6.70
2023-01-08T10:55:28.997Z,7.90
2023-01-08T10:58:04.027Z,7.90
2023-01-08T11:00:32.889Z,7.80
2023-01-08T11:03:21.150Z,7.40
2023-01-08T11:05:48.628Z,7.70
2023-01-08T11:08:17.917Z,8.00
2023-01-08T11:10:53.748Z,7.80
2023-01-08T11:13:20.417Z,7.80
2023-01-08T11:16:02.309Z,7.90
2023-01-08T11:18:29.101Z,7.50
2023-01-08T11:21:10.867Z,8.70
2023-01-08T11:23:37.648Z,7.80
2023-01-08T11:26:30.842Z,7.80
2023-01-08T11:29:06.202Z,7.90
2023-01-08T11:31:44.091Z,7.70
2023-01-08T11:34:26.061Z,8.00
2023-01-08T11:37:29.492Z,7.90
2023-01-08T11:39:56.180Z,7.90
2023-01-08T11:42:48.785Z,7.70
2023-01-08T11:45:24.974Z,8.10
2023-01-08T11:48:03.879Z,7.60
2023-01-08T11:50:45.179Z,8.50
2023-01-08T11:53:50.949Z,7.80
2023-01-08T11:56:44.103Z,8.60
2023-01-08T11:59:18.116Z,7.80
2023-01-08T12:01:51.745Z,7.70
2023-01-08T12:04:27.867Z,7.30
2023-01-08T12:06:59.938Z,7.10
2023-01-08T12:09:46.317Z,7.20
2023-01-08T12:12:22.610Z,7.90
2023-01-08T12:15:12.412Z,8.00
2023-01-08T12:18:04.491Z,7.40
2023-01-08T12:20:39.620Z,7.50
2023-01-08T12:23:22.444Z,7.50
2023-01-08T12:26:10.369Z,7.50
2023-01-08T12:28:55.546Z,7.30
2023-01-08T12:31:44.146Z,7.70
2023-01-08T12:34:20.272Z,7.80
2023-01-08T12:36:48.366Z,7.70
2023-01-08T12:39:30.107Z,7.30
2023-01-08T12:41:59.147Z,7.10
2023-01-08T12:44:27.863Z,7.50
2023-01-08T12:46:55.621Z,7.10
2023-01-08T12:49:26.362Z,6.90
2023-01-08T12:52:10.736Z,6.90
2023-01-08T12:54:48.945Z,7.30
2023-01-08T12:57:42.628Z,7.40
2023-01-08T13:00:19.941Z,7.40
2023-01-08T13:02:53.452Z,7.00
2023-01-08T13:05:20.199Z,7.30
2023-01-08T13:07:48.661Z,7.30
2023-01-08T13:10:37.680Z,7.00
2023-01-08T13:13:05.962Z,7.30
2023-01-08T13:15:32.927Z,7.00
2023-01-08T13:18:19.043Z,7.50
2023-01-08T13:20:59.585Z,7.10
2023-01-08T13:23:27.820Z,7.30
2023-01-08T13:25:56.050Z,7.40
2023-01-08T13:28:30.029Z,7.60
2023-01-08T13:31:10.850Z,7.30
2023-01-08T13:33:39.920Z,7.90
2023-01-08T13:36:12.819Z,7.50
2023-01-08T13:38:40.385Z,7.50
2023-01-08T13:41:46.087Z,7.60
2023-01-08T13:44:37.725Z,7.20
2023-01-08T13:47:37.087Z,8.00
2023-01-08T13:50:16.308Z,7.70
2023-01-08T13:52:56.265Z,7.80
2023-01-08T13:55:36.604Z,7.90
2023-01-08T16:21:49.265Z,7.40
2023-01-08T16:24:17.387Z,7.80
2023-01-08T16:26:44.824Z,7.90
2023-01-08T16:29:11.462Z,8.00
2023-01-08T16:31:38.584Z,7.90
2023-01-08T19:44:06.181Z,9.40
2023-01-08T19:46:32.929Z,10.00
2023-01-08T19:49:00.229Z,10.50
2023-01-08T19:51:27.653Z,10.00
2023-01-08T19:53:55.593Z,10.10
2023-01-08T19:56:22.286Z,9.60
2023-01-08T19:58:49.115Z,9.20
2023-01-08T20:01:18.181Z,9.40
2023-01-08T20:03:44.904Z,8.40
2023-01-08T20:06:16.225Z,8.40
2023-01-08T20:08:45.445Z,8.80
2023-01-08T20:11:14.335Z,8.60
2023-01-08T20:13:41.035Z,8.60
2023-01-08T20:16:09.228Z,8.30
2023-01-08T20:18:35.883Z,8.20
2023-01-08T20:21:17.217Z,7.80
2023-01-08T20:23:44.529Z,8.10
2023-01-08T20:26:14.585Z,7.40
2023-01-08T20:28:41.531Z,7.30
2023-01-08T20:31:16.486Z,7.30
2023-01-08T20:33:43.421Z,7.50
2023-01-08T20:36:21.043Z,7.20
2023-01-08T20:38:51.018Z,7.20
2023-01-08T20:41:17.917Z,7.00
2023-01-08T20:43:44.577Z,6.90
2023-01-08T20:46:13.752Z,7.10
2023-01-08T20:48:47.856Z,7.70
2023-01-08T20:51:15.412Z,7.50
2023-01-08T20:53:42.243Z,7.40
2023-01-08T20:56:10.634Z,7.30
2023-01-08T20:58:38.208Z,7.60
2023-01-08T21:01:08.827Z,7.50
2023-01-08T21:03:36.096Z,6.80
2023-01-08T21:06:10.246Z,7.10
2023-01-08T21:08:37.088Z,7.00
2023-01-08T21:11:05.253Z,7.40
2023-01-08T21:13:32.029Z,7.40
2023-01-08T21:16:05.848Z,8.00
2023-01-08T21:21:09.222Z,7.00
2023-01-08T21:23:42.369Z,6.90
2023-01-08T21:26:15.163Z,7.00
2023-01-08T21:28:45.672Z,8.00
2023-01-08T21:31:14.812Z,7.90
2023-01-08T21:33:41.833Z,8.00
2023-01-08T21:36:14.427Z,7.80
2023-01-08T21:38:41.300Z,7.70
2023-01-08T21:41:10.022Z,7.90
2023-01-08T21:43:55.632Z,6.90
2023-01-08T21:46:25.006Z,8.00
2023-01-08T21:48:52.502Z,7.70
2023-01-08T21:51:37.880Z,8.20
2023-01-08T21:54:04.693Z,7.40
2023-01-08T21:56:31.568Z,7.70
2023-01-08T21:58:58.191Z,7.00
2023-01-08T22:01:25.028Z,7.80
2023-01-08T22:03:51.885Z,7.50
2023-01-08T22:06:18.732Z,7.60
2023-01-08T22:08:45.402Z,7.60
2023-01-08T23:06:29.855Z,7.70
2023-01-08T23:08:56.645Z,7.60
2023-01-08T23:11:23.543Z,7.70
2023-01-08T23:13:53.686Z,7.60
2023-01-08T23:16:24.307Z,7.70
2023-01-08T23:18:51.823Z,7.70
2023-01-08T23:21:20.371Z,6.60
2023-01-08T23:23:47.074Z,8.00
2023-01-08T23:26:17.757Z,7.30
2023-01-08T23:28:44.607Z,7.10
2023-01-08T23:31:13.398Z,7.20
2023-01-08T23:33:40.079Z,8.00
2023-01-08T23:36:07.440Z,7.80
2023-01-08T23:38:34.264Z,7.60
2023-01-08T23:41:01.113Z,8.30
2023-01-08T23:43:27.783Z,7.90
2023-01-08T23:45:55.832Z,6.90
2023-01-08T23:48:22.708Z,8.00
2023-01-08T23:50:49.370Z,7.40
2023-01-08T23:53:16.012Z,7.50
2023-01-08T23:55:42.646Z,8.00
2023-01-08T23:58:09.404Z,8.40
